Time;durP1;ratioP1;P1;durP2;ratioP2;P2;SDS_P1;SDS_P2;PMS_P1;PMS_P2;Temp;Humidity;BMP_temperature;BMP_pressure;BME280_temperature;BME280_humidity;BME280_pressure;Samples;Min_cycle;Max_cycle;Signal;HPM_P1;HPM_P2
2021/12/16 00:09:02;;;;;;;5.15;3.22;;;6.60;99.90;;;;;;4872271;29;20096;-77
2021/12/16 00:33:37;;;;;;;1.55;1.20;;;6.50;99.90;;;;;;4875462;29;20083;-77
2021/12/16 00:36:07;;;;;;;2.00;0.98;;;6.40;99.90;;;;;;4888449;29;20060;-78
2021/12/16 00:38:36;;;;;;;1.75;0.80;;;6.50;99.90;;;;;;4890228;29;20060;-78
2021/12/16 00:41:07;;;;;;;3.20;1.25;;;6.60;99.90;;;;;;4889569;29;20416;-78
2021/12/16 00:54:10;;;;;;;3.90;1.17;;;6.60;99.90;;;;;;4893759;29;20082;-78
2021/12/16 00:56:40;;;;;;;4.72;1.30;;;6.60;99.90;;;;;;4872068;29;20108;-79
2021/12/16 00:59:10;;;;;;;7.28;1.02;;;6.60;99.90;;;;;;4872910;29;20056;-78
2021/12/16 01:35:32;;;;;;;1.98;1.15;;;6.70;99.90;;;;;;4875970;29;20052;-79
2021/12/16 01:38:39;;;;;;;2.58;1.10;;;6.70;99.90;;;;;;4874352;29;20048;-79
2021/12/16 01:49:46;;;;;;;8.50;2.42;;;6.70;99.90;;;;;;4874338;29;20167;-79
2021/12/16 01:55:19;;;;;;;3.08;1.67;;;6.70;99.90;;;;;;4875677;29;20085;-79
2021/12/16 01:57:54;;;;;;;4.85;1.30;;;6.70;99.90;;;;;;4889386;29;20145;-79
2021/12/16 02:00:28;;;;;;;3.53;1.08;;;6.70;99.90;;;;;;4875803;29;20056;-80
2021/12/16 02:03:03;;;;;;;3.05;1.30;;;6.70;99.90;;;;;;4892589;29;20568;-80
2021/12/16 02:08:25;;;;;;;5.53;1.42;;;6.70;99.90;;;;;;4875493;29;20045;-80
2021/12/16 02:11:16;;;;;;;3.00;1.60;;;6.70;99.90;;;;;;4874451;29;20201;-79
2021/12/16 02:27:33;;;;;;;4.22;1.13;;;6.60;99.90;;;;;;4878241;29;20058;-80
2021/12/16 02:35:33;;;;;;;2.95;1.02;;;6.60;99.90;;;;;;4878055;29;20719;-80
2021/12/16 02:38:05;;;;;;;5.30;1.42;;;6.70;99.90;;;;;;4874514;29;20140;-80
2021/12/16 02:40:36;;;;;;;9.05;1.55;;;6.70;99.90;;;;;;4894027;29;20056;-81
2021/12/16 02:43:23;;;;;;;1.27;0.80;;;6.70;99.90;;;;;;4891628;29;20057;-80
2021/12/16 02:48:41;;;;;;;5.07;1.20;;;6.70;99.90;;;;;;4895774;29;20097;-80
2021/12/16 02:51:13;;;;;;;2.05;1.15;;;6.70;99.90;;;;;;4876566;29;20053;-82
2021/12/16 02:53:45;;;;;;;5.68;1.00;;;6.70;99.90;;;;;;4878968;29;20129;-81
2021/12/16 02:56:13;;;;;;;3.75;1.23;;;6.70;99.90;;;;;;4878838;29;20044;-80
2021/12/16 02:58:45;;;;;;;1.35;1.08;;;6.70;99.90;;;;;;4899330;29;20044;-81
2021/12/16 03:01:34;;;;;;;7.28;2.92;;;6.80;99.90;;;;;;4880264;29;20045;-80
2021/12/16 03:04:05;;;;;;;5.13;1.35;;;6.70;99.90;;;;;;4891984;29;20140;-81
2021/12/16 03:06:33;;;;;;;4.03;1.27;;;6.70;99.90;;;;;;4895993;29;20060;-80
2021/12/16 03:09:04;;;;;;;2.72;1.08;;;6.70;99.90;;;;;;4878664;29;20410;-80
2021/12/16 03:11:48;;;;;;;3.38;1.45;;;6.70;99.90;;;;;;4895560;29;20052;-80
2021/12/16 03:14:24;;;;;;;6.00;1.52;;;6.70;99.90;;;;;;4883792;29;20064;-80
2021/12/16 03:22:43;;;;;;;6.68;1.42;;;6.60;99.90;;;;;;4880205;29;20058;-79
2021/12/16 03:25:22;;;;;;;5.82;1.17;;;6.60;99.90;;;;;;4877841;29;20088;-79
2021/12/16 03:38:54;;;;;;;2.60;0.93;;;6.60;99.90;;;;;;4897481;29;20060;-80
2021/12/16 03:41:21;;;;;;;2.33;1.80;;;6.70;99.90;;;;;;4897737;29;20052;-80
2021/12/16 03:43:50;;;;;;;5.65;1.30;;;6.70;99.90;;;;;;4880249;29;20052;-80
2021/12/16 03:46:25;;;;;;;4.70;1.40;;;6.70;99.90;;;;;;4893315;29;20044;-80
2021/12/16 03:48:58;;;;;;;2.17;1.95;;;6.70;99.90;;;;;;4877554;29;20049;-80
2021/12/16 03:51:38;;;;;;;4.15;1.00;;;6.70;99.90;;;;;;4898425;29;20048;-80
2021/12/16 03:54:16;;;;;;;7.10;1.40;;;6.70;99.90;;;;;;4892339;29;20100;-80
2021/12/16 03:56:46;;;;;;;2.37;0.83;;;6.70;99.90;;;;;;4878184;29;20055;-81
2021/12/16 03:59:19;;;;;;;3.17;1.33;;;6.70;99.90;;;;;;4893682;29;21745;-80
2021/12/16 04:02:15;;;;;;;3.75;0.95;;;6.70;99.90;;;;;;4894772;29;20045;-81
2021/12/16 04:04:46;;;;;;;5.43;1.40;;;6.70;99.90;;;;;;4878371;29;20045;-81
2021/12/16 04:07:14;;;;;;;6.68;1.35;;;6.70;99.90;;;;;;4881402;29;20052;-81
2021/12/16 04:10:10;;;;;;;2.13;1.33;;;6.70;99.90;;;;;;4879555;29;20093;-81
2021/12/16 04:12:37;;;;;;;3.58;1.27;;;6.70;99.90;;;;;;4877338;29;20072;-81
2021/12/16 04:15:07;;;;;;;7.15;2.25;;;6.70;99.90;;;;;;4880026;29;20128;-81
2021/12/16 04:17:40;;;;;;;5.95;1.23;;;6.70;99.90;;;;;;4876769;29;20053;-81
2021/12/16 04:20:11;;;;;;;3.63;0.93;;;6.70;99.90;;;;;;4879941;29;20059;-81
2021/12/16 04:22:43;;;;;;;1.70;1.38;;;6.80;99.90;;;;;;4893568;29;20902;-81
2021/12/16 04:25:24;;;;;;;2.53;1.30;;;6.70;99.90;;;;;;4880466;29;20123;-81
2021/12/16 04:27:56;;;;;;;6.15;1.98;;;6.70;99.90;;;;;;4879418;29;20049;-82
2021/12/16 04:30:25;;;;;;;3.63;1.38;;;6.70;99.90;;;;;;4878870;29;20530;-81
2021/12/16 04:32:53;;;;;;;2.63;1.23;;;6.70;99.90;;;;;;4877805;29;20629;-81
2021/12/16 04:35:24;;;;;;;2.50;1.25;;;6.70;99.90;;;;;;4892305;29;20056;-81
2021/12/16 04:37:54;;;;;;;5.75;1.67;;;6.70;99.90;;;;;;4876449;29;20049;-83
2021/12/16 04:40:26;;;;;;;;;;;6.70;99.90;;;;;;4897902;29;20101;-82
2021/12/16 04:43:01;;;;;;;6.45;1.48;;;6.60;99.90;;;;;;4893107;29;19927;-81
2021/12/16 04:45:37;;;;;;;6.38;1.33;;;6.60;99.90;;;;;;4895782;29;20056;-82
2021/12/16 04:48:06;;;;;;;11.00;2.00;;;6.50;99.90;;;;;;4896121;29;20049;-82
2021/12/16 04:50:38;;;;;;;6.32;3.28;;;6.50;99.90;;;;;;4896154;29;20108;-82
2021/12/16 04:53:07;;;;;;;5.05;1.35;;;6.50;99.90;;;;;;4880834;29;20146;-81
2021/12/16 04:55:37;;;;;;;8.07;2.20;;;6.40;99.90;;;;;;4896811;29;20044;-82
2021/12/16 04:58:05;;;;;;;7.25;1.85;;;6.40;99.90;;;;;;4895437;29;20085;-82
2021/12/16 05:00:33;;;;;;;7.30;1.83;;;6.40;99.90;;;;;;4878225;29;20055;-82
2021/12/16 05:03:23;;;;;;;6.93;2.40;;;6.40;99.90;;;;;;4895558;29;21037;-82
2021/12/16 05:05:51;;;;;;;4.47;1.65;;;6.30;99.90;;;;;;4882249;29;20064;-81
2021/12/16 05:08:20;;;;;;;5.38;1.60;;;6.30;99.90;;;;;;4875330;29;20048;-81
2021/12/16 05:10:58;;;;;;;6.32;1.95;;;6.30;99.90;;;;;;4892028;29;20151;-82
2021/12/16 05:13:27;;;;;;;3.30;1.83;;;6.30;99.90;;;;;;4895717;29;20100;-81
2021/12/16 05:15:57;;;;;;;10.38;2.63;;;6.20;99.90;;;;;;4896892;29;20820;-81
2021/12/16 05:18:31;;;;;;;4.30;2.25;;;6.30;99.90;;;;;;4879554;29;20606;-81
2021/12/16 05:21:04;;;;;;;8.18;1.85;;;6.30;99.90;;;;;;4894393;29;20055;-82
2021/12/16 05:26:20;;;;;;;8.30;1.75;;;6.30;99.90;;;;;;4878626;29;20459;-81
2021/12/16 05:29:17;;;;;;;13.50;2.28;;;6.30;99.90;;;;;;4874513;29;20864;-81
2021/12/16 05:31:44;;;;;;;8.20;1.83;;;6.20;99.90;;;;;;4879838;29;20056;-81
2021/12/16 05:34:12;;;;;;;7.18;2.00;;;6.20;99.90;;;;;;4879902;29;20621;-81
2021/12/16 05:36:41;;;;;;;18.95;2.58;;;6.20;99.90;;;;;;4894387;29;20058;-82
2021/12/16 05:39:10;;;;;;;6.53;2.00;;;6.20;99.90;;;;;;4877235;29;20052;-81
2021/12/16 05:41:59;;;;;;;6.05;1.52;;;6.20;99.90;;;;;;4876528;29;20181;-81
2021/12/16 05:44:27;;;;;;;4.35;1.30;;;6.20;99.90;;;;;;4877062;29;20048;-81
2021/12/16 05:46:54;;;;;;;4.30;2.03;;;6.10;99.90;;;;;;4863622;29;20468;-81
2021/12/16 05:49:22;;;;;;;8.50;1.92;;;6.20;99.90;;;;;;4879550;29;20060;-82
2021/12/16 05:51:51;;;;;;;13.82;2.42;;;6.10;99.90;;;;;;4877282;29;20075;-81
2021/12/16 05:54:21;;;;;;;11.23;2.15;;;6.10;99.90;;;;;;4879237;29;20053;-81
2021/12/16 05:57:08;;;;;;;7.85;2.15;;;6.10;99.90;;;;;;4876067;29;20442;-81
2021/12/16 05:59:36;;;;;;;5.07;2.40;;;6.10;99.90;;;;;;4878543;29;20135;-81
2021/12/16 06:02:04;;;;;;;11.52;3.28;;;6.10;99.90;;;;;;4874876;29;20192;-84
2021/12/16 06:04:35;;;;;;;17.77;4.20;;;6.10;99.90;;;;;;4882373;29;20045;-83
2021/12/16 06:07:10;;;;;;;14.18;4.03;;;6.10;99.90;;;;;;4879866;29;20057;-85
2021/12/16 06:09:37;;;;;;;7.15;3.70;;;6.10;99.90;;;;;;4893668;29;20072;-84
2021/12/16 06:12:05;;;;;;;5.43;1.55;;;6.10;99.90;;;;;;4882574;29;20060;-84
2021/12/16 06:28:22;;;;;;;10.48;1.98;;;6.00;99.90;;;;;;4885995;29;20119;-83
2021/12/16 06:30:49;;;;;;;7.53;2.72;;;5.90;99.90;;;;;;4891523;29;20048;-84
2021/12/16 06:33:18;;;;;;;9.15;2.63;;;5.90;99.90;;;;;;4879950;29;20127;-84
2021/12/16 06:35:47;;;;;;;9.70;2.58;;;5.90;99.90;;;;;;4876585;29;20580;-84
2021/12/16 06:38:14;;;;;;;10.75;2.47;;;5.90;99.90;;;;;;4896315;29;20059;-85
2021/12/16 06:40:53;;;;;;;11.70;1.90;;;6.00;99.90;;;;;;4876185;29;20052;-84
2021/12/16 06:43:45;;;;;;;8.00;2.08;;;6.00;99.90;;;;;;4878459;29;20150;-84
2021/12/16 06:46:16;;;;;;;9.18;3.28;;;6.00;99.90;;;;;;4892564;29;20056;-82
2021/12/16 06:48:47;;;;;;;10.25;1.92;;;6.00;99.90;;;;;;4879083;29;20537;-82
2021/12/16 06:51:22;;;;;;;11.25;2.85;;;6.00;99.90;;;;;;4893496;29;20044;-81
2021/12/16 06:54:03;;;;;;;12.50;2.25;;;6.00;99.90;;;;;;4876328;29;20059;-82
2021/12/16 06:56:43;;;;;;;6.97;2.28;;;6.00;99.90;;;;;;4876700;29;20049;-82
2021/12/16 06:59:21;;;;;;;6.88;1.73;;;6.00;99.90;;;;;;4867559;29;20493;-82
2021/12/16 07:02:03;;;;;;;11.52;2.03;;;6.00;99.90;;;;;;4892203;29;20060;-81
2021/12/16 07:04:30;;;;;;;5.38;1.48;;;5.90;99.90;;;;;;4877704;29;20048;-81
2021/12/16 07:06:58;;;;;;;11.02;2.47;;;5.90;99.90;;;;;;4875603;29;20511;-81
2021/12/16 07:09:27;;;;;;;5.38;1.77;;;5.90;99.90;;;;;;4882640;29;20049;-81
2021/12/16 07:11:58;;;;;;;12.93;4.78;;;5.90;99.90;;;;;;4874456;29;20431;-81
2021/12/16 07:14:39;;;;;;;11.13;2.22;;;5.90;99.90;;;;;;4891409;29;20067;-81
2021/12/16 07:17:12;;;;;;;7.32;2.78;;;5.90;99.90;;;;;;4895141;29;20502;-82
2021/12/16 07:19:41;;;;;;;12.00;3.72;;;5.90;99.90;;;;;;4876613;29;20056;-82
2021/12/16 07:22:10;;;;;;;10.85;4.00;;;5.90;99.90;;;;;;4876116;29;20334;-81
2021/12/16 07:24:37;;;;;;;13.25;2.33;;;5.90;99.90;;;;;;4877699;29;20053;-81
2021/12/16 07:27:06;;;;;;;5.97;2.33;;;5.80;99.90;;;;;;4893808;29;20052;-82
2021/12/16 07:29:34;;;;;;;24.15;4.07;;;5.80;99.90;;;;;;4877771;29;20447;-82
2021/12/16 07:32:01;;;;;;;9.75;2.85;;;5.80;99.90;;;;;;4874264;29;20044;-81
2021/12/16 07:34:29;;;;;;;5.60;1.77;;;5.80;99.90;;;;;;4896221;29;20191;-82
2021/12/16 07:36:59;;;;;;;7.72;2.88;;;5.80;99.90;;;;;;4881541;29;21533;-82
2021/12/16 07:39:37;;;;;;;8.25;2.60;;;5.80;99.90;;;;;;4881005;29;20073;-82
2021/12/16 07:42:06;;;;;;;13.02;2.65;;;5.80;99.90;;;;;;4880037;29;20080;-81
2021/12/16 07:44:34;;;;;;;10.15;2.45;;;5.90;99.90;;;;;;4880207;29;20499;-82
2021/12/16 07:47:05;;;;;;;10.10;2.38;;;5.90;99.90;;;;;;4881533;29;20088;-82
2021/12/16 07:49:36;;;;;;;14.68;2.78;;;5.90;99.90;;;;;;4879148;29;20053;-82
2021/12/16 07:52:07;;;;;;;10.30;4.30;;;5.90;99.90;;;;;;4880734;29;20590;-81
2021/12/16 07:54:34;;;;;;;8.85;2.08;;;5.90;99.90;;;;;;4881328;29;20053;-82
2021/12/16 07:57:01;;;;;;;14.48;1.95;;;5.90;99.90;;;;;;4886678;29;20049;-82
2021/12/16 07:59:31;;;;;;;6.95;2.25;;;5.90;99.90;;;;;;4896934;29;20650;-81
2021/12/16 08:01:58;;;;;;;6.97;1.73;;;5.90;99.90;;;;;;4880962;29;20060;-82
2021/12/16 08:04:31;;;;;;;11.02;2.50;;;5.90;99.90;;;;;;4877406;29;20052;-81
2021/12/16 08:07:04;;;;;;;10.88;2.28;;;5.90;99.90;;;;;;4878564;29;20071;-82
2021/12/16 08:09:35;;;;;;;11.32;3.03;;;5.90;99.90;;;;;;4879579;29;20176;-81
2021/12/16 08:12:03;;;;;;;6.25;1.75;;;5.80;99.90;;;;;;4882551;29;20139;-85
2021/12/16 08:14:31;;;;;;;6.88;1.88;;;5.80;99.90;;;;;;4878528;29;20104;-84
2021/12/16 08:16:58;;;;;;;14.73;2.95;;;5.90;99.90;;;;;;4897365;29;20056;-84
2021/12/16 08:19:26;;;;;;;15.07;2.40;;;5.90;99.90;;;;;;4877878;29;20045;-84
2021/12/16 08:21:53;;;;;;;8.77;2.00;;;5.90;99.90;;;;;;4885383;29;20153;-84
2021/12/16 08:24:20;;;;;;;7.90;3.03;;;6.00;99.90;;;;;;4875689;29;20060;-84
2021/12/16 08:26:50;;;;;;;7.15;1.98;;;6.00;99.90;;;;;;4864832;29;20056;-84
2021/12/16 08:29:17;;;;;;;16.67;3.70;;;6.00;99.90;;;;;;4895178;29;20095;-84
2021/12/16 08:31:45;;;;;;;10.02;2.10;;;6.00;99.90;;;;;;4881831;29;20704;-84
2021/12/16 08:34:13;;;;;;;6.78;2.20;;;6.00;99.90;;;;;;4879231;29;20048;-84
2021/12/16 08:36:41;;;;;;;9.13;3.22;;;6.00;99.90;;;;;;4879293;29;20048;-84
2021/12/16 08:39:15;;;;;;;9.75;1.85;;;6.00;99.90;;;;;;4890509;29;20052;-84
2021/12/16 08:41:53;;;;;;;6.30;2.03;;;6.00;99.90;;;;;;4878525;29;20064;-84
2021/12/16 08:44:21;;;;;;;6.50;2.13;;;6.00;99.90;;;;;;4873868;29;20068;-84
2021/12/16 08:46:53;;;;;;;5.53;1.70;;;6.00;99.90;;;;;;4875137;29;20071;-84
2021/12/16 08:49:20;;;;;;;16.38;4.93;;;6.00;99.90;;;;;;4878305;29;20052;-84
2021/12/16 08:51:50;;;;;;;10.70;3.25;;;6.00;99.90;;;;;;4877131;29;20053;-84
2021/12/16 08:54:18;;;;;;;12.27;3.00;;;6.10;99.90;;;;;;4879667;29;20056;-84
2021/12/16 08:56:46;;;;;;;17.17;2.95;;;6.00;99.90;;;;;;4898053;29;20481;-84
2021/12/16 08:59:14;;;;;;;11.90;3.42;;;6.10;99.90;;;;;;4884026;29;20057;-84
2021/12/16 09:01:46;;;;;;;8.48;2.42;;;6.00;99.90;;;;;;4883045;29;20553;-84
2021/12/16 09:04:15;;;;;;;7.32;2.00;;;6.10;99.90;;;;;;4897415;29;20052;-84
2021/12/16 09:06:47;;;;;;;7.53;2.50;;;6.10;99.90;;;;;;4878063;29;20061;-83
2021/12/16 09:09:15;;;;;;;9.57;3.28;;;6.10;99.90;;;;;;4880128;29;20049;-83
2021/12/16 09:12:00;;;;;;;7.18;1.92;;;6.10;99.90;;;;;;4881546;29;20060;-84
2021/12/16 09:14:28;;;;;;;8.13;2.15;;;6.10;99.90;;;;;;4896052;29;20057;-84
2021/12/16 09:16:55;;;;;;;7.82;2.97;;;6.20;99.90;;;;;;4879832;29;21514;-84
2021/12/16 09:19:23;;;;;;;9.00;3.08;;;6.20;99.90;;;;;;4879697;29;20044;-83
2021/12/16 09:21:50;;;;;;;20.90;2.78;;;6.20;99.90;;;;;;4880681;29;20045;-84
2021/12/16 09:24:17;;;;;;;12.43;2.30;;;6.20;99.90;;;;;;4879691;29;20127;-84
2021/12/16 09:26:45;;;;;;;7.95;2.03;;;6.20;99.90;;;;;;4879018;29;20391;-84
2021/12/16 09:29:13;;;;;;;12.30;2.22;;;6.20;99.90;;;;;;4875992;29;20055;-84
2021/12/16 09:31:40;;;;;;;14.05;2.85;;;6.20;99.90;;;;;;4895195;29;20081;-84
2021/12/16 09:34:08;;;;;;;8.57;1.70;;;6.20;99.90;;;;;;4880014;29;20041;-84
2021/12/16 09:36:40;;;;;;;9.05;3.25;;;6.20;99.90;;;;;;4878876;29;20048;-84
2021/12/16 09:39:12;;;;;;;11.05;3.63;;;6.30;99.90;;;;;;4877639;29;20056;-84
2021/12/16 09:41:42;;;;;;;12.23;2.90;;;6.30;99.90;;;;;;4878690;29;20048;-84
2021/12/16 09:44:09;;;;;;;14.00;2.28;;;6.30;99.90;;;;;;4879806;29;20172;-84
2021/12/16 09:46:36;;;;;;;10.73;2.75;;;6.30;99.90;;;;;;4883100;29;20056;-84
2021/12/16 09:49:04;;;;;;;7.22;2.35;;;6.30;99.90;;;;;;4892727;29;20101;-84
2021/12/16 09:51:35;;;;;;;12.88;2.45;;;6.30;99.90;;;;;;4878903;29;20147;-84
2021/12/16 09:54:07;;;;;;;15.43;2.72;;;6.30;99.90;;;;;;4894664;29;20057;-83
2021/12/16 09:56:35;;;;;;;11.93;2.28;;;6.30;99.90;;;;;;4893010;29;20447;-84
2021/12/16 09:59:05;;;;;;;12.27;2.05;;;6.30;99.90;;;;;;4892903;29;20052;-84
2021/12/16 10:01:33;;;;;;;11.32;2.42;;;6.30;99.90;;;;;;4878597;29;20057;-83
2021/12/16 10:04:04;;;;;;;10.30;2.42;;;6.30;99.90;;;;;;4879301;29;20056;-84
2021/12/16 10:06:34;;;;;;;10.20;2.75;;;6.30;99.90;;;;;;4876764;29;20056;-84
2021/12/16 10:09:04;;;;;;;10.40;2.88;;;6.40;99.90;;;;;;4878325;29;20508;-84
2021/12/16 10:11:35;;;;;;;11.43;3.63;;;6.30;99.90;;;;;;4881126;29;20052;-84
2021/12/16 10:14:18;;;;;;;5.57;2.28;;;6.30;99.90;;;;;;4878823;29;20040;-83
2021/12/16 10:19:35;;;;;;;7.93;2.22;;;6.30;99.90;;;;;;4877206;29;20195;-83
2021/12/16 10:22:31;;;;;;;8.65;3.15;;;6.30;99.90;;;;;;4878466;29;20674;-81
2021/12/16 10:25:30;;;;;;;9.85;2.40;;;6.30;99.90;;;;;;4879984;29;20094;-82
2021/12/16 10:28:00;;;;;;;11.88;2.13;;;6.30;99.90;;;;;;4885871;29;20063;-82
2021/12/16 10:30:50;;;;;;;14.48;3.08;;;6.20;99.90;;;;;;4894352;29;20537;-82
2021/12/16 10:33:17;;;;;;;;;;;6.20;99.90;;;;;;4878662;29;20044;-82
2021/12/16 10:35:47;;;;;;;12.18;2.15;;;6.20;99.90;;;;;;4876562;29;19932;-82
2021/12/16 10:38:19;;;;;;;8.88;1.95;;;6.20;99.90;;;;;;4877058;29;20155;-81
2021/12/16 10:40:50;;;;;;;13.93;2.95;;;6.20;99.90;;;;;;4877411;29;20056;-81
2021/12/16 10:43:29;;;;;;;18.55;3.92;;;6.20;99.90;;;;;;4883520;29;20056;-81
2021/12/16 10:46:08;;;;;;;10.98;2.67;;;6.20;99.90;;;;;;4875453;29;20060;-81
2021/12/16 10:48:50;;;;;;;9.85;2.33;;;6.20;99.90;;;;;;4880436;29;20057;-81
2021/12/16 10:51:23;;;;;;;6.68;1.98;;;6.20;99.90;;;;;;4877109;29;20067;-81
2021/12/16 10:53:59;;;;;;;12.02;2.80;;;6.20;99.90;;;;;;4877307;29;20455;-81
2021/12/16 10:56:47;;;;;;;10.98;2.72;;;6.30;99.90;;;;;;4879709;29;20072;-81
2021/12/16 10:59:25;;;;;;;8.85;2.47;;;6.30;99.90;;;;;;4864874;29;20280;-82
2021/12/16 11:02:03;;;;;;;9.13;2.97;;;6.30;99.90;;;;;;4892653;29;20049;-81
2021/12/16 11:04:35;;;;;;;11.43;2.22;;;6.30;99.90;;;;;;4893187;29;20057;-81
2021/12/16 11:07:19;;;;;;;8.38;2.13;;;6.30;99.90;;;;;;4895186;29;20060;-81
2021/12/16 11:09:58;;;;;;;8.57;1.75;;;6.30;99.90;;;;;;4881381;29;20398;-81
2021/12/16 11:12:31;;;;;;;9.30;2.15;;;6.30;99.90;;;;;;4897961;29;20514;-83
2021/12/16 11:15:07;;;;;;;7.45;2.28;;;6.30;99.90;;;;;;4882187;29;20055;-81
2021/12/16 11:17:46;;;;;;;12.13;3.08;;;6.30;99.90;;;;;;4881778;29;20045;-84
2021/12/16 11:20:32;;;;;;;9.45;2.95;;;6.30;99.90;;;;;;4879627;29;20048;-83
2021/12/16 11:23:17;;;;;;;14.38;3.38;;;6.30;99.90;;;;;;4891189;29;20056;-84
2021/12/16 11:25:44;;;;;;;10.02;2.60;;;6.30;99.90;;;;;;4897340;29;20057;-84
2021/12/16 11:28:14;;;;;;;10.40;3.17;;;6.30;99.90;;;;;;4865195;29;20109;-84
2021/12/16 11:31:06;;;;;;;10.65;3.67;;;6.30;99.90;;;;;;4883594;29;20051;-84
2021/12/16 11:33:35;;;;;;;9.95;1.95;;;6.30;99.90;;;;;;4884991;29;20402;-84
2021/12/16 11:36:08;;;;;;;14.55;3.22;;;6.30;99.90;;;;;;4885028;29;20079;-84
2021/12/16 11:38:47;;;;;;;7.20;1.90;;;6.30;99.90;;;;;;4879902;29;20407;-84
2021/12/16 11:41:25;;;;;;;10.23;2.05;;;6.30;99.90;;;;;;4879176;29;20053;-84
2021/12/16 11:43:58;;;;;;;10.85;2.45;;;6.40;99.90;;;;;;4898180;29;20063;-84
2021/12/16 11:46:34;;;;;;;14.88;2.80;;;6.40;99.90;;;;;;4878282;29;20071;-84
2021/12/16 11:49:21;;;;;;;11.98;2.17;;;6.40;99.90;;;;;;4881461;29;20132;-84
2021/12/16 11:51:56;;;;;;;5.03;2.53;;;6.40;99.90;;;;;;4897302;29;20372;-84
2021/12/16 11:54:44;;;;;;;10.07;2.58;;;6.40;99.90;;;;;;4879879;29;20526;-83
2021/12/16 11:57:30;;;;;;;8.60;2.45;;;6.40;99.90;;;;;;4864968;29;20059;-84
2021/12/16 12:00:14;;;;;;;10.68;2.85;;;6.40;99.90;;;;;;4880263;29;20049;-84
2021/12/16 12:03:00;;;;;;;10.55;1.83;;;6.50;99.90;;;;;;4872994;29;20044;-85
2021/12/16 12:05:32;;;;;;;10.48;2.83;;;6.50;99.90;;;;;;4880119;29;20059;-84
2021/12/16 12:08:02;;;;;;;11.13;2.53;;;6.50;99.90;;;;;;4897850;29;20048;-83
2021/12/16 12:10:46;;;;;;;8.15;2.70;;;6.40;99.90;;;;;;4875724;29;20044;-84
2021/12/16 12:13:23;;;;;;;5.18;1.58;;;6.50;99.90;;;;;;4877495;29;20045;-84
2021/12/16 12:15:56;;;;;;;8.80;2.72;;;6.50;99.90;;;;;;4892691;29;20041;-84
2021/12/16 12:18:59;;;;;;;7.07;2.38;;;6.40;99.90;;;;;;4875684;29;20083;-83
2021/12/16 12:21:31;;;;;;;8.75;2.83;;;6.50;99.90;;;;;;4882288;29;20056;-84
2021/12/16 12:24:21;;;;;;;10.52;2.22;;;6.40;99.90;;;;;;4878161;29;20410;-84
2021/12/16 12:26:55;;;;;;;18.55;1.92;;;6.40;99.90;;;;;;4878852;29;20052;-84
2021/12/16 12:29:23;;;;;;;18.30;2.88;;;6.40;99.90;;;;;;4890297;29;20053;-84
2021/12/16 12:31:53;;;;;;;6.13;1.88;;;6.40;99.90;;;;;;4884914;29;20051;-84
2021/12/16 12:34:21;;;;;;;12.02;2.85;;;6.40;99.90;;;;;;4877678;29;20514;-82
2021/12/16 12:36:54;;;;;;;10.05;2.25;;;6.40;99.90;;;;;;4879876;29;21260;-83
2021/12/16 12:39:27;;;;;;;5.80;2.08;;;6.40;99.90;;;;;;4878107;29;20052;-84
2021/12/16 12:41:54;;;;;;;8.55;2.05;;;6.40;99.90;;;;;;4895445;29;20053;-84
2021/12/16 12:44:22;;;;;;;11.80;2.38;;;6.40;99.90;;;;;;4880234;29;20937;-84
2021/12/16 12:46:50;;;;;;;9.27;2.00;;;6.30;99.90;;;;;;4880056;29;20135;-84
2021/12/16 12:49:25;;;;;;;10.23;1.77;;;6.30;99.90;;;;;;4896082;29;20060;-85
2021/12/16 12:52:22;;;;;;;13.63;3.25;;;6.30;99.90;;;;;;4878638;29;20580;-86
2021/12/16 12:55:07;;;;;;;10.38;2.55;;;6.30;99.90;;;;;;4878991;29;21538;-83
2021/12/16 12:57:37;;;;;;;6.93;1.88;;;6.30;99.90;;;;;;4878737;29;21265;-82
2021/12/16 13:00:10;;;;;;;7.47;2.47;;;6.30;99.90;;;;;;4876529;29;21978;-82
2021/12/16 13:02:38;;;;;;;12.32;3.42;;;6.30;99.90;;;;;;4877303;29;20151;-85
2021/12/16 13:05:32;;;;;;;15.35;2.80;;;6.30;99.90;;;;;;4877411;29;20048;-85
2021/12/16 13:08:04;;;;;;;7.55;2.78;;;6.30;99.90;;;;;;4878296;29;20049;-85
2021/12/16 13:10:37;;;;;;;10.93;3.42;;;6.30;99.90;;;;;;4895806;29;20125;-85
2021/12/16 13:13:52;;;;;;;9.07;2.40;;;6.30;99.90;;;;;;4881263;29;20048;-84
2021/12/16 13:16:40;;;;;;;10.43;5.05;;;6.30;99.90;;;;;;4873719;29;20056;-85
2021/12/16 13:26:18;;;;;;;10.85;1.92;;;6.20;99.90;;;;;;4877830;29;20115;-84
2021/12/16 13:29:26;;;;;;;11.30;2.97;;;6.20;99.90;;;;;;4873887;29;20053;-85
2021/12/16 13:32:14;;;;;;;7.72;3.10;;;6.20;99.90;;;;;;4877510;29;20052;-84
2021/12/16 13:34:54;;;;;;;7.88;1.83;;;6.20;99.90;;;;;;4877558;29;20048;-85
2021/12/16 13:37:32;;;;;;;7.10;1.98;;;6.20;99.90;;;;;;4878261;29;20641;-85
2021/12/16 13:40:05;;;;;;;5.90;2.03;;;6.10;99.90;;;;;;4892087;29;20060;-85
2021/12/16 13:42:40;;;;;;;8.75;1.80;;;6.20;99.90;;;;;;4878575;29;20143;-85
2021/12/16 13:45:32;;;;;;;15.82;2.30;;;6.10;99.90;;;;;;4875342;29;20060;-84
2021/12/16 14:05:47;;;;;;;4.05;1.55;;;6.20;99.90;;;;;;4877429;29;20048;-84
2021/12/16 14:08:36;;;;;;;9.30;4.00;;;6.10;99.90;;;;;;4876531;29;20117;-84
2021/12/16 14:12:13;;;;;;;10.52;2.70;;;6.10;99.90;;;;;;4894465;29;20127;-84
2021/12/16 14:17:42;;;;;;;9.40;3.92;;;6.20;99.90;;;;;;4875643;29;20049;-84
2021/12/16 14:23:24;;;;;;;6.97;1.92;;;6.10;99.90;;;;;;4875339;29;20059;-84
2021/12/16 14:48:35;;;;;;;7.78;2.08;;;6.20;99.90;;;;;;4882554;29;20410;-83
2021/12/16 14:51:01;;;;;;;9.38;1.38;;;6.10;99.90;;;;;;4881958;29;20707;-84
2021/12/16 14:53:47;;;;;;;10.80;2.53;;;6.10;99.90;;;;;;4880567;29;20059;-83
2021/12/16 14:56:23;;;;;;;6.68;2.35;;;6.00;99.90;;;;;;4885121;29;20075;-85
2021/12/16 14:58:55;;;;;;;9.15;1.70;;;6.00;99.90;;;;;;4881140;29;20049;-84
2021/12/16 15:01:33;;;;;;;7.00;2.33;;;6.00;99.90;;;;;;4879975;29;20689;-84
2021/12/16 15:04:01;;;;;;;8.90;2.00;;;6.00;99.90;;;;;;4880867;29;20049;-85
2021/12/16 15:06:38;;;;;;;6.95;2.28;;;6.00;99.90;;;;;;4881788;29;20056;-86
2021/12/16 15:09:15;;;;;;;12.85;2.42;;;6.00;99.90;;;;;;4882140;29;20049;-85
2021/12/16 15:12:18;;;;;;;10.85;2.50;;;6.00;99.90;;;;;;4881079;29;20053;-85
2021/12/16 15:37:27;;;;;;;7.57;2.83;;;5.90;99.90;;;;;;4882463;29;20048;-82
2021/12/16 15:45:18;;;;;;;6.22;1.95;;;5.90;99.90;;;;;;4879897;29;20071;-82
2021/12/16 15:48:11;;;;;;;6.93;1.75;;;5.90;99.90;;;;;;4883146;29;20052;-83
2021/12/16 15:50:44;;;;;;;8.45;1.67;;;6.00;99.90;;;;;;4879731;29;20063;-83
2021/12/16 15:53:21;;;;;;;10.40;3.25;;;5.90;99.90;;;;;;4882513;29;20056;-83
2021/12/16 15:56:06;;;;;;;11.98;1.98;;;5.90;99.90;;;;;;4878005;29;20052;-83
2021/12/16 15:58:38;;;;;;;9.43;3.20;;;6.00;99.90;;;;;;4876696;29;20477;-83
2021/12/16 16:01:17;;;;;;;10.73;2.97;;;6.00;99.90;;;;;;4875798;29;20091;-83
2021/12/16 16:03:46;;;;;;;4.80;1.27;;;5.90;99.90;;;;;;4883055;29;20048;-83
2021/12/16 16:06:15;;;;;;;5.15;2.13;;;5.90;99.90;;;;;;4875081;29;20044;-83
2021/12/16 16:08:50;;;;;;;6.53;2.50;;;5.90;99.90;;;;;;4876681;29;20044;-82
2021/12/16 16:11:21;;;;;;;4.90;1.45;;;5.90;99.90;;;;;;4876240;29;20066;-82
2021/12/16 16:13:53;;;;;;;3.90;1.70;;;5.90;99.90;;;;;;4892472;29;20043;-82
2021/12/16 16:16:28;;;;;;;9.10;2.67;;;5.90;99.90;;;;;;4877619;29;20048;-83
2021/12/16 16:18:58;;;;;;;11.35;1.77;;;5.90;99.90;;;;;;4893299;29;20802;-82
2021/12/16 16:21:42;;;;;;;5.55;1.60;;;5.90;99.90;;;;;;4878461;29;20048;-84
2021/12/16 16:24:21;;;;;;;6.88;1.80;;;5.90;99.90;;;;;;4874912;29;20057;-83
2021/12/16 16:26:51;;;;;;;8.05;1.38;;;5.90;99.90;;;;;;4879764;29;20399;-83
2021/12/16 16:29:22;;;;;;;8.82;3.03;;;5.90;99.90;;;;;;4893713;29;20515;-83
2021/12/16 16:31:51;;;;;;;12.02;2.75;;;5.90;99.90;;;;;;4877706;29;20144;-83
2021/12/16 16:34:31;;;;;;;7.00;2.17;;;5.90;99.90;;;;;;4878537;29;20056;-82
2021/12/16 16:37:01;;;;;;;4.63;2.10;;;5.90;99.90;;;;;;4873999;29;20057;-83
2021/12/16 16:39:34;;;;;;;5.53;1.27;;;5.90;99.90;;;;;;4878353;29;20063;-82
2021/12/16 16:42:05;;;;;;;9.82;2.75;;;5.90;99.90;;;;;;4879055;29;20044;-83
2021/12/16 16:44:33;;;;;;;4.05;1.20;;;5.90;99.90;;;;;;4876776;29;20431;-83
2021/12/16 16:47:29;;;;;;;5.35;1.60;;;5.90;99.90;;;;;;4894272;29;20131;-83
2021/12/16 16:49:58;;;;;;;9.20;1.52;;;5.90;99.90;;;;;;4876901;29;20052;-83
2021/12/16 16:52:35;;;;;;;6.88;1.73;;;5.90;99.90;;;;;;4877491;29;20055;-83
2021/12/16 16:55:19;;;;;;;7.15;2.05;;;5.90;99.90;;;;;;4862406;29;20462;-82
2021/12/16 16:57:56;;;;;;;6.32;1.65;;;5.90;99.90;;;;;;4892787;29;20068;-84
2021/12/16 17:00:33;;;;;;;5.05;1.27;;;5.90;99.90;;;;;;4885304;29;20052;-83
2021/12/16 17:03:12;;;;;;;6.38;1.27;;;5.90;99.90;;;;;;4847432;29;20056;-83
2021/12/16 17:05:45;;;;;;;8.98;1.73;;;6.00;99.90;;;;;;4876925;29;20044;-82
2021/12/16 17:08:16;;;;;;;10.60;1.88;;;6.00;99.90;;;;;;4884031;29;20076;-83
2021/12/16 17:10:50;;;;;;;10.32;1.33;;;5.90;99.90;;;;;;4841124;29;20079;-84
2021/12/16 17:13:35;;;;;;;8.98;1.52;;;5.90;99.90;;;;;;4879991;29;20056;-83
2021/12/16 17:18:44;;;;;;;8.43;2.08;;;5.90;99.90;;;;;;4892890;29;20534;-82
2021/12/16 17:21:27;;;;;;;11.80;1.83;;;5.90;99.90;;;;;;4878927;29;20053;-83